createdAt,value
2018-02-21T00:00:03.292Z,-0.80
2018-02-21T00:02:31.548Z,-0.80
2018-02-21T00:05:00.365Z,-0.70
2018-02-21T00:07:29.486Z,-0.70
2018-02-21T00:09:57.967Z,-0.70
2018-02-21T00:12:27.966Z,-0.60
2018-02-21T00:14:55.907Z,-0.60
2018-02-21T00:17:24.685Z,-0.80
2018-02-21T00:19:53.425Z,-0.80
2018-02-21T00:22:21.325Z,-0.90
2018-02-21T00:24:49.406Z,-0.90
2018-02-21T00:27:17.405Z,-1.00
2018-02-21T00:29:45.557Z,-1.00
2018-02-21T00:32:13.925Z,-1.10
2018-02-21T00:34:41.888Z,-1.10
2018-02-21T00:37:09.747Z,-1.00
2018-02-21T00:39:38.053Z,-1.00
2018-02-21T00:42:06.951Z,-0.90
2018-02-21T00:44:34.851Z,-0.90
2018-02-21T00:47:02.870Z,-0.90
2018-02-21T00:49:31.531Z,-0.90
2018-02-21T00:51:59.469Z,-0.90
2018-02-21T00:54:27.850Z,-0.90
2018-02-21T00:56:55.610Z,-1.00
2018-02-21T00:59:23.869Z,-1.00
2018-02-21T01:01:52.525Z,-1.10
2018-02-21T01:04:20.725Z,-1.10
2018-02-21T01:06:49.006Z,-1.10
2018-02-21T01:09:17.025Z,-1.10
2018-02-21T01:11:44.869Z,-1.10
2018-02-21T01:14:12.748Z,-1.10
2018-02-21T01:16:40.565Z,-1.10
2018-02-21T01:19:08.786Z,-1.10
2018-02-21T01:21:36.945Z,-1.00
2018-02-21T01:24:05.911Z,-1.00
2018-02-21T01:26:34.165Z,-0.90
2018-02-21T01:29:02.445Z,-0.90
2018-02-21T01:31:30.465Z,-0.90
2018-02-21T01:33:59.105Z,-0.80
2018-02-21T01:36:27.225Z,-0.80
2018-02-21T01:38:55.725Z,-0.70
2018-02-21T01:41:23.485Z,-0.80
2018-02-21T01:43:52.147Z,-0.70
2018-02-21T01:46:19.986Z,-0.70
2018-02-21T01:48:47.866Z,-0.70
2018-02-21T01:51:15.742Z,-0.60
2018-02-21T01:53:43.567Z,-0.60
2018-02-21T01:56:12.246Z,-0.60
2018-02-21T01:58:41.245Z,-0.60
2018-02-21T02:01:10.053Z,-0.60
2018-02-21T02:03:37.873Z,-0.60
2018-02-21T02:06:05.833Z,-0.60
2018-02-21T02:08:33.794Z,-0.60
2018-02-21T02:11:01.913Z,-0.60
2018-02-21T02:13:29.813Z,-0.60
2018-02-21T02:15:58.373Z,-0.60
2018-02-21T02:18:26.553Z,-0.60
2018-02-21T02:20:54.714Z,-0.60
2018-02-21T02:23:22.533Z,-0.60
2018-02-21T02:25:50.413Z,-0.60
2018-02-21T02:28:18.861Z,-0.60
2018-02-21T02:30:46.713Z,-0.60
2018-02-21T02:33:16.533Z,-0.60
2018-02-21T02:35:44.356Z,-0.60
2018-02-21T02:38:23.933Z,-0.70
2018-02-21T02:40:52.134Z,-0.70
2018-02-21T02:43:20.333Z,-0.70
2018-02-21T02:45:48.936Z,-0.60
2018-02-21T02:48:17.452Z,-0.60
2018-02-21T02:50:46.373Z,-0.60
2018-02-21T02:53:14.855Z,-0.60
2018-02-21T02:55:43.433Z,-0.60
2018-02-21T02:58:12.276Z,-0.60
2018-02-21T03:00:40.966Z,-0.60
2018-02-21T03:03:09.087Z,-0.60
2018-02-21T03:05:36.946Z,-0.60
2018-02-21T03:08:04.806Z,-0.60
2018-02-21T03:10:33.526Z,-0.60
2018-02-21T03:13:02.026Z,-0.80
2018-02-21T03:15:30.467Z,-0.90
2018-02-21T03:17:58.697Z,-1.00
2018-02-21T03:20:26.546Z,-1.00
2018-02-21T03:22:54.667Z,-1.00
2018-02-21T03:25:22.446Z,-0.90
2018-02-21T03:27:50.428Z,-0.90
2018-02-21T03:30:18.310Z,-0.90
2018-02-21T03:32:46.366Z,-0.90
2018-02-21T03:35:14.206Z,-0.90
2018-02-21T03:37:42.175Z,-0.90
2018-02-21T03:40:10.146Z,-1.00
2018-02-21T03:42:37.987Z,-1.00
2018-02-21T03:45:06.086Z,-1.10
2018-02-21T03:47:34.365Z,-1.10
2018-02-21T03:50:02.306Z,-1.10
2018-02-21T03:52:31.087Z,-1.10
2018-02-21T03:54:59.006Z,-1.10
2018-02-21T03:57:27.067Z,-1.20
2018-02-21T03:59:55.256Z,-1.20
2018-02-21T04:02:23.130Z,-1.20
2018-02-21T04:04:50.949Z,-1.30
2018-02-21T04:07:19.611Z,-1.30
2018-02-21T04:09:47.810Z,-1.40
2018-02-21T04:12:17.250Z,-1.40
2018-02-21T04:14:45.730Z,-1.40
2018-02-21T04:17:13.610Z,-1.40
2018-02-21T04:19:41.569Z,-1.30
2018-02-21T04:22:10.170Z,-1.30
2018-02-21T04:24:38.311Z,-1.40
2018-02-21T04:27:06.490Z,-1.50
2018-02-21T04:29:34.450Z,-1.50
2018-02-21T04:32:02.390Z,-1.50
2018-02-21T04:34:30.678Z,-1.50
2018-02-21T04:36:58.569Z,-1.40
2018-02-21T04:39:26.410Z,-1.40
2018-02-21T04:41:54.650Z,-1.40
2018-02-21T04:44:23.530Z,-1.30
2018-02-21T04:46:51.490Z,-1.40
2018-02-21T04:49:20.748Z,-1.50
2018-02-21T04:51:49.490Z,-1.60
2018-02-21T04:57:27.010Z,-1.50
2018-02-21T05:00:02.231Z,-1.40
2018-02-21T05:02:30.707Z,-1.40
2018-02-21T05:04:59.207Z,-1.40
2018-02-21T05:07:28.191Z,-1.50
2018-02-21T05:09:56.453Z,-1.50
2018-02-21T05:12:24.709Z,-1.50
2018-02-21T05:14:52.994Z,-1.50
2018-02-21T05:17:21.188Z,-1.50
2018-02-21T05:19:49.768Z,-1.50
2018-02-21T05:22:18.568Z,-1.50
2018-02-21T05:24:46.509Z,-1.50
2018-02-21T05:27:14.468Z,-1.80
2018-02-21T05:29:42.488Z,-1.80
2018-02-21T05:32:10.529Z,-1.80
2018-02-21T05:34:39.290Z,-1.60
2018-02-21T05:37:07.488Z,-1.60
2018-02-21T05:39:35.748Z,-1.70
2018-02-21T05:42:05.908Z,-1.90
2018-02-21T05:44:33.811Z,-2.00
2018-02-21T05:47:02.388Z,-1.90
2018-02-21T05:49:31.488Z,-1.70
2018-02-21T05:51:59.348Z,-1.70
2018-02-21T05:54:27.488Z,-1.60
2018-02-21T05:56:55.737Z,-1.50
2018-02-21T05:59:25.130Z,-1.40
2018-02-21T06:01:52.987Z,-1.40
2018-02-21T06:04:21.086Z,-1.40
2018-02-21T06:06:49.267Z,-1.50
2018-02-21T06:09:17.914Z,-1.50
2018-02-21T06:11:46.606Z,-1.30
2018-02-21T06:14:14.615Z,-1.30
2018-02-21T06:16:42.868Z,-1.20
2018-02-21T06:19:11.526Z,-1.10
2018-02-21T06:21:39.506Z,-1.10
2018-02-21T06:24:07.610Z,-1.30
2018-02-21T06:26:35.447Z,-1.40
2018-02-21T06:29:03.966Z,-1.60
2018-02-21T06:31:31.926Z,-1.70
2018-02-21T06:33:59.955Z,-1.70
2018-02-21T06:36:28.086Z,-1.90
2018-02-21T06:38:56.767Z,-2.00
2018-02-21T06:41:25.487Z,-2.10
2018-02-21T06:43:53.481Z,-2.10
2018-02-21T06:46:22.146Z,-1.90
2018-02-21T06:48:50.606Z,-1.70
2018-02-21T06:51:19.786Z,-1.50
2018-02-21T06:53:48.446Z,-1.10
2018-02-21T06:56:16.331Z,-1.10
2018-02-21T06:58:44.171Z,-1.00
2018-02-21T07:01:12.033Z,-0.80
2018-02-21T07:03:40.395Z,-0.70
2018-02-21T07:06:08.374Z,-0.60
2018-02-21T07:08:36.591Z,-0.60
2018-02-21T07:11:04.368Z,-0.50
2018-02-21T07:13:32.267Z,-0.40
2018-02-21T07:16:00.907Z,-0.40
2018-02-21T07:18:30.038Z,-0.30
2018-02-21T07:20:57.806Z,-0.40
2018-02-21T07:23:25.826Z,-0.30
2018-02-21T07:25:53.626Z,-0.30
2018-02-21T07:28:21.806Z,-0.20
2018-02-21T07:30:50.528Z,-0.20
2018-02-21T07:33:18.407Z,-0.20
2018-02-21T07:35:46.230Z,-0.20
2018-02-21T07:38:14.808Z,-0.20
2018-02-21T07:40:43.508Z,-0.10
2018-02-21T07:43:11.347Z,-0.10
2018-02-21T07:45:39.187Z,-0.10
2018-02-21T07:48:07.127Z,0.00
2018-02-21T07:50:35.087Z,-0.10
2018-02-21T07:53:02.947Z,0.00
2018-02-21T07:55:30.847Z,0.00
2018-02-21T07:57:59.972Z,0.00
2018-02-21T08:00:27.683Z,-0.10
2018-02-21T08:02:55.610Z,0.00
2018-02-21T08:05:23.507Z,0.00
2018-02-21T08:07:51.568Z,0.10
2018-02-21T08:10:19.390Z,0.10
2018-02-21T08:12:47.328Z,0.10
2018-02-21T08:15:15.508Z,0.10
2018-02-21T08:17:44.868Z,0.30
2018-02-21T08:20:13.447Z,0.20
2018-02-21T08:22:41.348Z,0.30
2018-02-21T08:25:10.187Z,0.30
2018-02-21T08:30:10.950Z,0.40
2018-02-21T08:32:39.127Z,0.40
2018-02-21T08:35:07.247Z,0.40
2018-02-21T08:37:36.068Z,0.50
2018-02-21T08:40:03.890Z,0.50
2018-02-21T08:42:31.625Z,0.50
2018-02-21T08:44:59.487Z,0.60
2018-02-21T08:47:28.906Z,0.60
2018-02-21T08:49:56.887Z,0.60
2018-02-21T08:52:24.808Z,0.60
2018-02-21T08:54:52.605Z,0.70
2018-02-21T08:57:21.486Z,0.90
2018-02-21T08:59:49.306Z,0.80
2018-02-21T09:04:49.189Z,1.00
2018-02-21T09:07:17.089Z,1.00
2018-02-21T09:09:45.011Z,1.10
2018-02-21T09:12:12.772Z,1.20
2018-02-21T09:14:40.650Z,1.20
2018-02-21T09:17:08.390Z,1.30
2018-02-21T09:19:36.370Z,1.40
2018-02-21T09:22:04.310Z,1.50
2018-02-21T09:24:32.655Z,1.50
2018-02-21T09:27:00.467Z,1.50
2018-02-21T09:29:28.868Z,1.50
2018-02-21T09:31:57.408Z,1.60
2018-02-21T09:34:25.527Z,1.60
2018-02-21T09:36:53.447Z,1.70
2018-02-21T09:39:21.688Z,1.70
2018-02-21T09:41:49.568Z,1.60
2018-02-21T09:44:17.348Z,1.50
2018-02-21T09:46:45.127Z,1.40
2018-02-21T09:49:12.989Z,1.40
2018-02-21T09:51:40.903Z,1.40
2018-02-21T09:54:08.726Z,1.40
2018-02-21T09:56:36.646Z,1.40
2018-02-21T09:59:04.526Z,1.40
2018-02-21T10:01:34.066Z,1.50
2018-02-21T10:04:01.989Z,1.40
2018-02-21T10:06:30.047Z,1.40
2018-02-21T10:08:58.606Z,1.40
2018-02-21T10:11:27.713Z,1.40
2018-02-21T10:13:55.807Z,1.40
2018-02-21T10:16:23.727Z,1.40
2018-02-21T10:18:51.806Z,1.40
2018-02-21T10:21:21.253Z,1.50
2018-02-21T10:23:49.187Z,1.60
2018-02-21T10:26:17.026Z,1.70
2018-02-21T10:31:16.906Z,1.90
2018-02-21T10:33:44.828Z,2.00
2018-02-21T10:36:12.968Z,2.00
2018-02-21T10:38:40.686Z,2.10
2018-02-21T10:41:08.607Z,2.20
2018-02-21T10:43:37.247Z,2.40
2018-02-21T10:46:05.166Z,2.40
2018-02-21T10:48:33.005Z,2.40
2018-02-21T10:51:00.945Z,2.50
2018-02-21T10:53:28.707Z,2.60
2018-02-21T10:55:56.527Z,2.60
2018-02-21T10:58:24.366Z,2.70
2018-02-21T11:00:57.890Z,2.70
2018-02-21T11:03:26.466Z,2.80
2018-02-21T11:05:54.587Z,2.70
2018-02-21T11:08:22.467Z,2.90
2018-02-21T11:10:50.285Z,2.90
2018-02-21T11:13:18.108Z,2.90
2018-02-21T11:15:46.206Z,2.80
2018-02-21T11:18:14.413Z,2.80
2018-02-21T11:20:42.445Z,3.00
2018-02-21T11:23:10.405Z,3.10
2018-02-21T11:25:38.525Z,3.00
2018-02-21T11:28:06.525Z,3.00
2018-02-21T11:30:35.030Z,2.90
2018-02-21T11:33:02.845Z,3.00
2018-02-21T11:35:30.725Z,3.00
2018-02-21T11:37:59.340Z,2.90
2018-02-21T11:40:27.136Z,2.80
2018-02-21T11:42:54.905Z,2.90
2018-02-21T11:45:22.629Z,3.00
2018-02-21T11:47:50.427Z,3.00
2018-02-21T11:50:18.466Z,2.90
2018-02-21T11:52:47.327Z,2.70
2018-02-21T11:57:47.326Z,2.80
2018-02-21T12:00:15.246Z,2.80
2018-02-21T12:02:43.117Z,2.90
2018-02-21T12:05:11.006Z,3.00
2018-02-21T12:07:39.089Z,3.10
2018-02-21T12:10:07.728Z,3.30
2018-02-21T12:12:35.630Z,3.20
2018-02-21T12:15:03.552Z,3.00
2018-02-21T12:17:32.167Z,3.00
2018-02-21T12:20:00.306Z,3.00
2018-02-21T12:22:28.806Z,3.10
2018-02-21T12:24:58.068Z,3.10
2018-02-21T12:27:25.926Z,3.10
2018-02-21T12:29:53.807Z,3.00
2018-02-21T12:35:25.167Z,3.00
2018-02-21T12:37:53.046Z,3.00
2018-02-21T12:40:26.426Z,3.00
2018-02-21T12:42:54.350Z,3.00
2018-02-21T12:45:22.187Z,3.00
2018-02-21T12:47:50.228Z,3.00
2018-02-21T12:50:18.541Z,2.90
2018-02-21T12:52:47.974Z,2.80
2018-02-21T12:55:15.891Z,2.70
2018-02-21T12:57:43.871Z,2.70
2018-02-21T13:00:14.875Z,2.70
2018-02-21T13:02:42.946Z,2.60
2018-02-21T13:05:11.067Z,2.60
2018-02-21T13:07:39.195Z,2.60
2018-02-21T13:10:07.029Z,2.60
2018-02-21T13:12:34.906Z,2.60
2018-02-21T13:15:04.568Z,2.60
2018-02-21T13:17:32.447Z,2.60
2018-02-21T13:20:00.606Z,2.70
2018-02-21T13:22:28.446Z,2.60
2018-02-21T13:24:56.426Z,2.60
2018-02-21T13:27:24.327Z,2.60
2018-02-21T13:29:52.127Z,2.60
2018-02-21T13:32:20.305Z,2.50
2018-02-21T13:34:48.190Z,2.50
2018-02-21T13:37:16.206Z,2.50
2018-02-21T13:39:44.286Z,2.50
2018-02-21T13:42:12.412Z,2.50
2018-02-21T13:44:40.615Z,2.50
2018-02-21T13:47:08.812Z,2.50
2018-02-21T13:49:36.873Z,2.50
2018-02-21T13:52:05.096Z,2.50
2018-02-21T13:54:32.997Z,2.50
2018-02-21T13:57:01.183Z,2.50
2018-02-21T13:59:29.572Z,2.50
2018-02-21T14:01:57.367Z,2.50
2018-02-21T14:04:26.147Z,2.50
2018-02-21T14:06:54.035Z,2.50
2018-02-21T14:09:22.228Z,2.50
2018-02-21T14:11:50.153Z,2.50
2018-02-21T14:14:18.033Z,2.40
2018-02-21T14:16:45.871Z,2.40
2018-02-21T14:19:15.906Z,2.50
2018-02-21T14:21:43.947Z,2.50
2018-02-21T14:24:12.091Z,2.40
2018-02-21T14:26:39.967Z,2.40
2018-02-21T14:29:07.828Z,2.50
2018-02-21T14:31:36.287Z,2.50
2018-02-21T14:34:03.891Z,2.50
2018-02-21T14:36:31.498Z,2.50
2018-02-21T14:38:59.130Z,2.50
2018-02-21T14:41:26.756Z,2.40
2018-02-21T14:43:54.424Z,2.40
2018-02-21T14:46:22.017Z,2.40
2018-02-21T14:48:49.639Z,2.30
2018-02-21T14:51:17.298Z,2.20
2018-02-21T14:53:44.892Z,2.20
2018-02-21T14:56:13.032Z,2.10
2018-02-21T14:58:40.706Z,2.10
2018-02-21T15:01:08.344Z,2.00
2018-02-21T15:03:35.996Z,1.90
2018-02-21T15:06:04.170Z,1.90
2018-02-21T15:08:32.007Z,1.90
2018-02-21T15:10:59.950Z,1.90
2018-02-21T15:13:27.748Z,1.90
2018-02-21T15:15:55.608Z,1.90
2018-02-21T15:18:23.647Z,1.80
2018-02-21T15:20:51.493Z,1.80
2018-02-21T15:23:19.450Z,1.80
2018-02-21T15:25:47.327Z,1.80
2018-02-21T15:28:15.268Z,1.80
2018-02-21T15:30:43.396Z,1.80
2018-02-21T15:33:11.348Z,1.80
2018-02-21T15:35:39.187Z,1.70
2018-02-21T15:38:08.549Z,1.70
2018-02-21T15:40:36.772Z,1.70
2018-02-21T15:43:04.650Z,1.70
2018-02-21T15:45:32.489Z,1.70
2018-02-21T15:48:00.427Z,1.60
2018-02-21T15:50:28.578Z,1.60
2018-02-21T15:52:56.488Z,1.70
2018-02-21T15:55:24.448Z,1.70
2018-02-21T15:57:53.028Z,1.80
2018-02-21T16:00:20.737Z,1.80
2018-02-21T16:02:48.876Z,1.80
2018-02-21T16:05:17.287Z,1.80
2018-02-21T16:07:46.406Z,1.70
2018-02-21T16:10:14.326Z,1.70
2018-02-21T16:12:42.553Z,1.70
2018-02-21T16:15:11.132Z,1.80
2018-02-21T16:17:39.174Z,1.70
2018-02-21T16:20:07.092Z,1.70
2018-02-21T16:22:34.934Z,1.60
2018-02-21T16:25:02.731Z,1.60
2018-02-21T16:27:30.855Z,1.60
2018-02-21T16:29:58.730Z,1.70
2018-02-21T16:32:27.891Z,1.70
2018-02-21T16:34:55.850Z,1.70
2018-02-21T16:37:23.690Z,1.70
2018-02-21T16:39:52.351Z,1.70
2018-02-21T16:42:20.232Z,1.70
2018-02-21T16:44:48.091Z,1.70
2018-02-21T16:47:16.171Z,1.60
2018-02-21T16:49:43.952Z,1.60
2018-02-21T16:52:11.933Z,1.50
2018-02-21T16:54:40.312Z,1.50
2018-02-21T16:57:08.412Z,1.50
2018-02-21T16:59:36.689Z,1.50
2018-02-21T17:02:04.827Z,1.40
2018-02-21T17:04:32.931Z,1.40
2018-02-21T17:07:00.889Z,1.40
2018-02-21T17:09:28.808Z,1.40
2018-02-21T17:11:57.687Z,1.40
2018-02-21T17:14:25.827Z,1.30
2018-02-21T17:16:53.608Z,1.30
2018-02-21T17:19:21.629Z,1.30
2018-02-21T17:21:50.472Z,1.20
2018-02-21T17:24:18.851Z,1.20
2018-02-21T17:26:46.691Z,1.20
2018-02-21T17:29:14.807Z,1.20
2018-02-21T17:31:43.387Z,1.30
2018-02-21T17:34:11.490Z,1.20
2018-02-21T17:36:39.309Z,1.30
2018-02-21T17:39:07.288Z,1.30
2018-02-21T17:41:35.188Z,1.30
2018-02-21T17:44:03.009Z,1.30
2018-02-21T17:46:32.543Z,1.30
2018-02-21T17:49:00.651Z,1.30
2018-02-21T17:51:28.648Z,1.40
2018-02-21T17:53:56.789Z,1.30
2018-02-21T17:56:24.647Z,1.30
2018-02-21T17:58:53.046Z,1.30
2018-02-21T18:01:20.889Z,1.20
2018-02-21T18:03:49.449Z,1.20
2018-02-21T18:06:17.368Z,1.20
2018-02-21T18:08:45.328Z,1.10
2018-02-21T18:11:13.169Z,1.20
2018-02-21T18:13:41.029Z,1.10
2018-02-21T18:16:08.985Z,1.10
2018-02-21T18:18:36.924Z,1.10
2018-02-21T18:21:04.805Z,1.10
2018-02-21T18:23:33.068Z,1.10
2018-02-21T18:26:00.891Z,1.10
2018-02-21T18:28:28.665Z,1.00
2018-02-21T18:30:56.605Z,1.00
2018-02-21T18:33:24.367Z,0.90
2018-02-21T18:35:52.456Z,0.90
2018-02-21T18:38:20.209Z,0.90
2018-02-21T18:40:47.987Z,0.80
2018-02-21T18:43:16.768Z,0.80
2018-02-21T18:45:44.612Z,0.80
2018-02-21T18:48:12.446Z,0.80
2018-02-21T18:50:40.296Z,0.80
2018-02-21T18:53:09.512Z,0.80
2018-02-21T18:55:37.766Z,0.70
2018-02-21T18:58:05.531Z,0.70
2018-02-21T19:00:33.388Z,0.70
2018-02-21T19:03:01.446Z,0.60
2018-02-21T19:05:29.246Z,0.60
2018-02-21T19:07:57.025Z,0.60
2018-02-21T19:10:24.925Z,0.60
2018-02-21T19:12:53.046Z,0.50
2018-02-21T19:15:20.826Z,0.50
2018-02-21T19:17:48.730Z,0.50
2018-02-21T19:20:16.507Z,0.50
2018-02-21T19:22:44.448Z,0.60
2018-02-21T19:25:12.316Z,0.60
2018-02-21T19:27:40.010Z,0.50
2018-02-21T19:30:07.739Z,0.50
2018-02-21T19:32:35.632Z,0.60
2018-02-21T19:35:03.371Z,0.50
2018-02-21T19:37:32.011Z,0.30
2018-02-21T19:39:59.833Z,0.30
2018-02-21T19:42:28.017Z,0.20
2018-02-21T19:44:55.811Z,0.20
2018-02-21T19:47:23.572Z,0.10
2018-02-21T19:49:51.367Z,0.00
2018-02-21T19:52:20.756Z,0.00
2018-02-21T19:54:48.653Z,0.00
2018-02-21T19:57:16.449Z,0.00
2018-02-21T19:59:44.657Z,0.00
2018-02-21T20:02:12.512Z,-0.20
2018-02-21T20:04:40.610Z,-0.30
2018-02-21T20:07:08.430Z,-0.40
2018-02-21T20:09:36.428Z,-0.50
2018-02-21T20:12:04.628Z,-0.70
2018-02-21T20:14:32.429Z,-0.80
2018-02-21T20:17:01.207Z,-0.70
2018-02-21T20:19:29.368Z,-0.70
2018-02-21T20:21:57.268Z,-0.70
2018-02-21T20:24:25.087Z,-0.70
2018-02-21T20:26:52.947Z,-0.80
2018-02-21T20:29:20.807Z,-0.70
2018-02-21T20:31:48.627Z,-0.50
2018-02-21T20:34:16.667Z,-0.40
2018-02-21T20:36:44.568Z,-0.30
2018-02-21T20:39:12.586Z,-0.20
2018-02-21T20:41:40.726Z,-0.20
2018-02-21T20:44:08.606Z,-0.20
2018-02-21T20:49:08.369Z,-0.10
2018-02-21T20:51:36.989Z,-0.10
2018-02-21T20:54:04.867Z,-0.10
2018-02-21T20:56:32.711Z,0.00
2018-02-21T20:59:00.649Z,0.00
2018-02-21T21:01:28.614Z,0.00
2018-02-21T21:03:56.447Z,0.00
2018-02-21T21:06:24.289Z,0.10
2018-02-21T21:08:52.208Z,0.10
2018-02-21T21:11:21.075Z,0.10
2018-02-21T21:13:49.092Z,0.10
2018-02-21T21:16:17.344Z,0.00
2018-02-21T21:18:45.195Z,0.00
2018-02-21T21:21:13.092Z,0.00
2018-02-21T21:23:41.007Z,0.10
2018-02-21T21:26:08.936Z,0.00
2018-02-21T21:28:37.050Z,0.10
2018-02-21T21:31:04.957Z,0.10
2018-02-21T21:33:33.050Z,0.20
2018-02-21T21:36:01.890Z,0.20
2018-02-21T21:38:32.174Z,0.20
2018-02-21T21:41:01.430Z,0.20
2018-02-21T21:43:29.148Z,0.20
2018-02-21T21:45:56.911Z,0.20
2018-02-21T21:48:24.768Z,0.20
2018-02-21T21:50:53.288Z,0.10
2018-02-21T21:53:21.072Z,0.10
2018-02-21T21:55:48.830Z,-0.10
2018-02-21T21:58:16.572Z,-0.10
2018-02-21T22:00:44.892Z,-0.20
2018-02-21T22:03:12.654Z,-0.20
2018-02-21T22:05:40.376Z,-0.20
2018-02-21T22:08:08.210Z,-0.10
2018-02-21T22:10:36.190Z,-0.20
2018-02-21T22:13:03.971Z,-0.30
2018-02-21T22:15:31.771Z,-0.20
2018-02-21T22:17:59.513Z,-0.20
2018-02-21T22:20:27.367Z,-0.10
2018-02-21T22:22:55.169Z,0.00
2018-02-21T22:25:22.949Z,0.00
2018-02-21T22:27:50.729Z,0.00
2018-02-21T22:30:21.176Z,0.10
2018-02-21T22:32:48.985Z,0.10
2018-02-21T22:35:17.013Z,0.10
2018-02-21T22:37:45.294Z,0.00
2018-02-21T22:40:13.088Z,0.00
2018-02-21T22:42:41.253Z,0.00
2018-02-21T22:45:09.166Z,0.00
2018-02-21T22:47:37.766Z,0.10
2018-02-21T22:50:06.150Z,0.10
2018-02-21T22:52:34.367Z,0.20
2018-02-21T22:55:02.127Z,0.20
2018-02-21T22:57:29.967Z,0.30
2018-02-21T22:59:57.987Z,0.30
2018-02-21T23:02:25.855Z,0.40
2018-02-21T23:04:53.975Z,0.40
2018-02-21T23:07:22.156Z,0.40
2018-02-21T23:09:50.282Z,0.50
2018-02-21T23:12:18.074Z,0.50
2018-02-21T23:14:45.955Z,0.50
2018-02-21T23:17:13.775Z,0.40
2018-02-21T23:19:41.615Z,0.30
2018-02-21T23:22:09.595Z,0.20
2018-02-21T23:24:37.394Z,0.20
2018-02-21T23:27:05.174Z,0.10
2018-02-21T23:29:33.054Z,-0.10
2018-02-21T23:32:01.355Z,0.00
2018-02-21T23:34:29.715Z,0.00
2018-02-21T23:36:57.654Z,0.00
2018-02-21T23:39:25.575Z,0.10
2018-02-21T23:41:53.575Z,0.10
2018-02-21T23:44:21.495Z,-0.10
2018-02-21T23:46:51.169Z,-0.10
2018-02-21T23:49:19.128Z,-0.10
2018-02-21T23:51:47.027Z,-0.10
2018-02-21T23:54:15.048Z,-0.10
2018-02-21T23:56:42.968Z,-0.10
2018-02-21T23:59:10.808Z,-0.10
